Time;durP1;ratioP1;P1;durP2;ratioP2;P2;SDS_P1;SDS_P2;PMS_P1;PMS_P2;Temp;Humidity;BMP_temperature;BMP_pressure;BME280_temperature;BME280_humidity;BME280_pressure;Samples;Min_cycle;Max_cycle;Signal;HPM_P1;HPM_P2
2021/05/23 00:00:07;;;;;;;0.50;0.43;;;9.60;99.90;;;;;;5058295;28;20188;-77
2021/05/23 00:02:34;;;;;;;0.60;0.60;;;9.60;99.90;;;;;;5057209;28;20191;-80
2021/05/23 00:05:00;;;;;;;0.50;0.40;;;9.60;99.90;;;;;;5056484;28;20194;-77
2021/05/23 00:07:27;;;;;;;1.13;1.10;;;9.60;99.90;;;;;;5056879;28;20218;-81
2021/05/23 00:09:55;;;;;;;1.10;0.63;;;9.60;99.90;;;;;;5056897;28;20190;-79
2021/05/23 00:12:22;;;;;;;0.57;0.57;;;9.60;99.90;;;;;;5056951;28;20547;-78
2021/05/23 00:14:48;;;;;;;1.95;1.85;;;9.50;99.90;;;;;;5057271;28;20200;-80
2021/05/23 00:17:14;;;;;;;0.52;0.50;;;9.50;99.90;;;;;;5056888;28;20216;-80
2021/05/23 00:19:40;;;;;;;2.67;0.85;;;9.50;99.90;;;;;;5056637;28;20779;-79
2021/05/23 00:22:06;;;;;;;1.40;1.30;;;9.50;99.90;;;;;;5056823;28;20198;-78
2021/05/23 00:24:33;;;;;;;1.52;1.40;;;9.40;99.90;;;;;;5057130;28;20600;-79
2021/05/23 00:27:00;;;;;;;0.50;0.40;;;9.40;99.90;;;;;;5056532;28;20209;-80
2021/05/23 00:29:26;;;;;;;0.80;0.55;;;9.40;99.90;;;;;;5057003;28;20223;-80
2021/05/23 00:31:53;;;;;;;0.60;0.60;;;9.40;99.90;;;;;;5057064;28;20222;-78
2021/05/23 00:34:19;;;;;;;1.13;0.68;;;9.40;99.90;;;;;;5056661;28;20230;-80
2021/05/23 00:36:46;;;;;;;0.50;0.40;;;9.40;99.90;;;;;;5056320;28;20195;-80
2021/05/23 00:39:12;;;;;;;0.95;0.95;;;9.40;99.90;;;;;;5057483;28;20215;-80
2021/05/23 00:41:39;;;;;;;0.50;0.40;;;9.40;99.90;;;;;;5057687;28;20575;-81
2021/05/23 00:44:06;;;;;;;1.00;0.80;;;9.30;99.90;;;;;;5057773;28;20206;-79
2021/05/23 00:46:32;;;;;;;0.50;0.40;;;9.30;99.90;;;;;;5057295;28;20199;-81
2021/05/23 00:48:59;;;;;;;0.70;0.55;;;9.30;99.90;;;;;;5056912;28;20228;-81
2021/05/23 00:51:25;;;;;;;0.50;0.40;;;9.30;99.90;;;;;;5057412;28;20204;-80
2021/05/23 00:53:51;;;;;;;0.50;0.40;;;9.30;99.90;;;;;;5056764;28;20194;-79
2021/05/23 00:56:19;;;;;;;0.50;0.40;;;9.30;99.90;;;;;;5057111;28;20567;-80
2021/05/23 00:58:45;;;;;;;0.60;0.50;;;9.30;99.90;;;;;;5056142;28;20232;-79
2021/05/23 01:01:15;;;;;;;2.58;0.85;;;9.30;99.90;;;;;;5057353;28;20276;-80
2021/05/23 01:03:59;;;;;;;0.50;0.40;;;9.40;99.90;;;;;;5057309;28;20203;-80
2021/05/23 01:06:27;;;;;;;1.65;1.20;;;9.30;99.90;;;;;;5055932;28;20237;-78
2021/05/23 01:08:53;;;;;;;0.50;0.40;;;9.40;99.90;;;;;;5056222;28;20584;-78
2021/05/23 01:12:10;;;;;;;0.60;0.60;;;9.30;99.90;;;;;;5057066;28;20199;-79
2021/05/23 01:14:57;;;;;;;0.70;0.68;;;9.30;99.90;;;;;;5057575;28;20195;-79
2021/05/23 01:17:45;;;;;;;0.50;0.40;;;9.30;99.90;;;;;;5064754;28;20215;-79
2021/05/23 01:20:32;;;;;;;0.50;0.40;;;9.30;99.90;;;;;;5057450;28;20281;-80
2021/05/23 01:23:11;;;;;;;0.70;0.63;;;9.30;99.90;;;;;;5059667;28;20405;-78
2021/05/23 01:25:39;;;;;;;0.50;0.40;;;9.40;99.90;;;;;;5061042;28;20200;-79
2021/05/23 01:28:07;;;;;;;0.50;0.40;;;9.30;99.90;;;;;;5061704;28;20583;-80
2021/05/23 01:30:36;;;;;;;1.63;0.70;;;9.40;99.90;;;;;;5057190;28;20196;-80
2021/05/23 01:33:06;;;;;;;0.50;0.40;;;9.30;99.90;;;;;;5057179;28;20252;-79
2021/05/23 01:35:36;;;;;;;0.50;0.40;;;9.40;99.90;;;;;;5055652;28;20206;-80
2021/05/23 01:38:04;;;;;;;0.47;0.38;;;9.40;99.90;;;;;;5055184;28;20693;-81
2021/05/23 01:40:32;;;;;;;1.80;1.02;;;9.40;99.90;;;;;;5057058;28;20202;-80
2021/05/23 01:43:00;;;;;;;0.50;0.40;;;9.40;99.90;;;;;;5056444;28;20201;-79
2021/05/23 01:45:27;;;;;;;0.50;0.50;;;9.40;99.90;;;;;;5056049;28;20532;-80
2021/05/23 01:47:53;;;;;;;0.50;0.45;;;9.40;99.90;;;;;;5055271;28;20295;-79
2021/05/23 01:50:20;;;;;;;3.25;3.00;;;9.40;99.90;;;;;;5058259;28;20195;-80
2021/05/23 01:52:49;;;;;;;0.50;0.50;;;9.40;99.90;;;;;;5061361;28;20196;-78
2021/05/23 01:55:16;;;;;;;0.77;0.77;;;9.40;99.90;;;;;;5062785;28;20610;-81
2021/05/23 01:57:42;;;;;;;0.50;0.40;;;9.40;99.90;;;;;;5059164;28;20580;-80
2021/05/23 02:00:12;;;;;;;0.50;0.40;;;9.40;99.90;;;;;;5060178;28;20199;-80
2021/05/23 02:02:38;;;;;;;0.50;0.40;;;9.40;99.90;;;;;;5055625;28;20282;-80
2021/05/23 02:05:07;;;;;;;0.50;0.40;;;9.40;99.90;;;;;;5055749;28;20203;-79
2021/05/23 02:07:33;;;;;;;1.88;0.90;;;9.40;99.90;;;;;;5055668;28;20289;-79
2021/05/23 02:09:59;;;;;;;0.60;0.50;;;9.40;99.90;;;;;;5058744;28;20227;-79
2021/05/23 02:12:27;;;;;;;12.60;1.15;;;9.40;99.90;;;;;;5059794;28;20242;-81
2021/05/23 02:14:53;;;;;;;2.00;1.70;;;9.40;99.90;;;;;;5060364;28;20195;-79
2021/05/23 02:17:20;;;;;;;0.88;0.88;;;9.40;99.90;;;;;;5058816;28;20609;-80
2021/05/23 02:19:49;;;;;;;0.50;0.40;;;9.40;99.90;;;;;;5058911;28;20548;-80
2021/05/23 02:22:16;;;;;;;0.75;0.60;;;9.40;99.90;;;;;;5059966;28;20556;-80
2021/05/23 02:24:44;;;;;;;1.63;1.52;;;9.40;99.90;;;;;;5059721;28;20195;-78
2021/05/23 02:27:10;;;;;;;0.50;0.40;;;9.40;99.90;;;;;;5058380;28;20635;-80
2021/05/23 02:29:36;;;;;;;0.85;0.85;;;9.40;99.90;;;;;;5059636;28;20241;-80
2021/05/23 02:32:05;;;;;;;0.50;0.40;;;9.40;99.90;;;;;;5060439;28;20559;-80
2021/05/23 02:34:32;;;;;;;0.50;0.40;;;9.40;99.90;;;;;;5059382;28;20195;-81
2021/05/23 02:36:59;;;;;;;0.50;0.40;;;9.40;99.90;;;;;;5061073;28;20203;-79
2021/05/23 02:39:25;;;;;;;0.50;0.40;;;9.40;99.90;;;;;;5060752;28;20221;-79
2021/05/23 02:41:51;;;;;;;0.50;0.40;;;9.40;99.90;;;;;;5061065;28;20671;-80
2021/05/23 02:44:18;;;;;;;2.67;1.15;;;9.40;99.90;;;;;;5061051;28;20203;-79
2021/05/23 02:46:44;;;;;;;0.47;0.40;;;9.40;99.90;;;;;;5059453;28;20245;-80
2021/05/23 02:49:13;;;;;;;3.13;2.65;;;9.40;99.90;;;;;;5059353;28;20231;-80
2021/05/23 02:51:41;;;;;;;0.50;0.40;;;9.40;99.90;;;;;;5061278;28;20203;-78
2021/05/23 02:54:07;;;;;;;0.50;0.40;;;9.30;99.90;;;;;;5060852;28;20196;-80
2021/05/23 02:56:33;;;;;;;1.95;1.60;;;9.40;99.90;;;;;;5059968;28;20642;-81
2021/05/23 02:59:00;;;;;;;1.77;1.67;;;9.40;99.90;;;;;;5060120;28;20213;-80
2021/05/23 03:01:26;;;;;;;0.50;0.40;;;9.40;99.90;;;;;;5060832;28;20199;-79
2021/05/23 03:03:52;;;;;;;0.80;0.80;;;9.40;99.90;;;;;;5061332;28;20215;-80
2021/05/23 03:06:19;;;;;;;0.50;0.40;;;9.40;99.90;;;;;;5059576;28;20201;-81
2021/05/23 03:08:46;;;;;;;1.65;1.58;;;9.40;99.90;;;;;;5059639;28;20225;-79
2021/05/23 03:11:12;;;;;;;2.45;2.20;;;9.40;99.90;;;;;;5059189;28;20190;-80
2021/05/23 03:13:38;;;;;;;0.50;0.40;;;9.40;99.90;;;;;;5060532;28;20214;-81
2021/05/23 03:16:05;;;;;;;0.50;0.40;;;9.40;99.90;;;;;;5058140;28;20195;-80
2021/05/23 03:18:31;;;;;;;0.55;0.55;;;9.40;99.90;;;;;;5054884;28;20591;-80
2021/05/23 03:20:58;;;;;;;0.50;0.40;;;9.40;99.90;;;;;;5054082;28;20665;-79
2021/05/23 03:23:24;;;;;;;1.67;0.75;;;9.40;99.90;;;;;;5055558;28;20196;-79
2021/05/23 03:25:51;;;;;;;2.10;2.00;;;9.50;99.90;;;;;;5054885;28;20235;-79
2021/05/23 03:28:17;;;;;;;0.50;0.40;;;9.50;99.90;;;;;;5055358;28;20223;-79
2021/05/23 03:30:44;;;;;;;0.50;0.40;;;9.50;99.90;;;;;;5055180;28;20738;-80
2021/05/23 03:33:11;;;;;;;1.50;1.50;;;9.40;99.90;;;;;;5055657;28;20247;-77
2021/05/23 03:35:39;;;;;;;0.50;0.40;;;9.50;99.90;;;;;;5054379;28;20206;-80
2021/05/23 03:38:07;;;;;;;0.90;0.90;;;9.50;99.90;;;;;;5055155;28;20776;-80
2021/05/23 03:40:36;;;;;;;4.82;1.15;;;9.50;99.90;;;;;;5054730;28;20194;-79
2021/05/23 03:43:03;;;;;;;2.75;2.55;;;9.50;99.90;;;;;;5055105;28;20253;-80
2021/05/23 03:45:30;;;;;;;0.50;0.40;;;9.50;99.90;;;;;;5054841;28;20202;-80
2021/05/23 03:47:56;;;;;;;6.82;4.65;;;9.40;99.90;;;;;;5054437;28;20253;-79
2021/05/23 03:50:24;;;;;;;0.50;0.40;;;9.40;99.90;;;;;;5054081;28;20299;-81
2021/05/23 03:52:52;;;;;;;0.50;0.40;;;9.40;99.90;;;;;;5054783;28;20262;-79
2021/05/23 03:55:19;;;;;;;0.50;0.40;;;9.50;99.90;;;;;;5054614;28;20203;-80
2021/05/23 03:57:45;;;;;;;0.50;0.50;;;9.50;99.90;;;;;;5054359;28;20226;-79
2021/05/23 04:00:15;;;;;;;1.20;1.20;;;9.50;99.90;;;;;;5054331;28;20669;-80
2021/05/23 04:02:44;;;;;;;0.93;0.93;;;9.50;99.90;;;;;;5054853;28;20200;-80
2021/05/23 04:05:11;;;;;;;0.50;0.40;;;9.50;99.90;;;;;;5054413;28;20295;-80
2021/05/23 04:07:37;;;;;;;0.50;0.40;;;9.50;99.90;;;;;;5054456;28;20221;-79
2021/05/23 04:10:06;;;;;;;0.50;0.50;;;9.50;99.90;;;;;;5053944;28;20220;-80
2021/05/23 04:12:35;;;;;;;0.50;0.40;;;9.50;99.90;;;;;;5054389;28;20243;-79
2021/05/23 04:15:01;;;;;;;4.10;3.90;;;9.60;99.90;;;;;;5053959;28;20205;-77
2021/05/23 04:17:28;;;;;;;1.90;1.30;;;9.60;99.90;;;;;;5053200;28;20626;-78
2021/05/23 04:19:55;;;;;;;0.50;0.50;;;9.60;99.90;;;;;;5053289;28;20203;-77
2021/05/23 04:22:21;;;;;;;2.00;1.90;;;9.60;99.90;;;;;;5054073;28;20198;-77
2021/05/23 04:24:47;;;;;;;0.57;0.57;;;9.60;99.90;;;;;;5053806;28;20203;-79
2021/05/23 04:27:14;;;;;;;0.50;0.40;;;9.60;99.90;;;;;;5053254;28;20211;-80
2021/05/23 04:29:40;;;;;;;0.75;0.75;;;9.60;99.90;;;;;;5054161;28;20212;-78
2021/05/23 04:32:07;;;;;;;0.68;0.68;;;9.70;99.90;;;;;;5053492;28;20197;-79
2021/05/23 04:34:35;;;;;;;1.60;1.50;;;9.70;99.90;;;;;;5053772;28;20352;-80
2021/05/23 04:37:02;;;;;;;3.15;2.67;;;9.70;99.90;;;;;;5053440;28;20689;-79
2021/05/23 04:39:28;;;;;;;2.13;1.23;;;9.70;99.90;;;;;;5053312;28;20200;-80
2021/05/23 04:41:54;;;;;;;0.93;0.93;;;9.70;99.90;;;;;;5053176;28;20407;-80
2021/05/23 04:44:20;;;;;;;1.60;1.50;;;9.80;99.90;;;;;;5053375;28;20200;-81
2021/05/23 04:46:47;;;;;;;3.17;1.88;;;9.80;99.90;;;;;;5053479;28;20197;-80
2021/05/23 04:49:13;;;;;;;0.50;0.40;;;9.80;99.90;;;;;;5052873;28;20223;-80
2021/05/23 04:51:40;;;;;;;1.15;0.82;;;9.80;99.90;;;;;;5053358;28;20192;-79
2021/05/23 04:54:06;;;;;;;1.05;1.05;;;9.80;99.90;;;;;;5053478;28;20196;-79
2021/05/23 04:56:33;;;;;;;0.50;0.50;;;9.80;99.90;;;;;;5053332;28;20245;-80
2021/05/23 04:58:59;;;;;;;0.50;0.40;;;9.80;99.90;;;;;;5053841;28;20224;-79
2021/05/23 05:01:25;;;;;;;0.50;0.50;;;9.90;99.90;;;;;;5052724;28;20199;-79
2021/05/23 05:03:51;;;;;;;4.22;3.35;;;9.90;99.90;;;;;;5053826;28;20246;-78
2021/05/23 05:06:18;;;;;;;3.00;2.50;;;9.90;99.90;;;;;;5053122;28;20292;-80
2021/05/23 05:08:46;;;;;;;1.83;1.30;;;9.90;99.90;;;;;;5053082;28;20252;-79
2021/05/23 05:11:12;;;;;;;2.45;1.60;;;10.00;99.90;;;;;;5053176;28;20571;-80
2021/05/23 05:13:38;;;;;;;0.60;0.50;;;10.00;99.90;;;;;;5054625;28;20199;-80
2021/05/23 05:16:05;;;;;;;2.38;2.28;;;10.00;99.90;;;;;;5054041;28;20212;-78
2021/05/23 05:18:32;;;;;;;0.70;0.70;;;10.00;99.90;;;;;;5053004;28;20216;-79
2021/05/23 05:20:58;;;;;;;0.50;0.40;;;10.10;99.90;;;;;;5052840;28;20204;-78
2021/05/23 05:23:24;;;;;;;0.65;0.65;;;10.10;99.90;;;;;;5053784;28;20218;-80
2021/05/23 05:25:51;;;;;;;1.48;1.30;;;10.10;99.90;;;;;;5053504;28;20200;-80
2021/05/23 05:28:17;;;;;;;0.50;0.40;;;10.10;99.90;;;;;;5053183;28;20212;-79
2021/05/23 05:30:44;;;;;;;1.90;1.80;;;10.10;99.90;;;;;;5054284;28;20201;-78
2021/05/23 05:33:10;;;;;;;0.85;0.82;;;10.10;99.90;;;;;;5054719;28;20196;-78
2021/05/23 05:35:36;;;;;;;0.65;0.65;;;10.00;99.90;;;;;;5053142;28;20288;-78
2021/05/23 05:38:03;;;;;;;0.50;0.40;;;10.10;99.90;;;;;;5052913;28;20619;-80
2021/05/23 05:40:29;;;;;;;2.45;2.25;;;10.10;99.90;;;;;;5053504;28;20211;-80
2021/05/23 05:42:56;;;;;;;3.35;3.05;;;10.00;99.90;;;;;;5054367;28;20677;-77
2021/05/23 05:45:22;;;;;;;2.67;2.17;;;10.00;99.90;;;;;;5057021;28;20199;-81
2021/05/23 05:47:48;;;;;;;0.50;0.40;;;10.00;99.90;;;;;;5057636;28;20223;-81
2021/05/23 05:50:14;;;;;;;2.65;1.80;;;9.90;99.90;;;;;;5055461;28;20222;-80
2021/05/23 05:52:41;;;;;;;0.50;0.30;;;9.90;99.90;;;;;;5056627;28;20204;-80
2021/05/23 05:55:08;;;;;;;1.20;0.70;;;9.80;99.90;;;;;;5056736;28;20198;-80
2021/05/23 05:57:34;;;;;;;3.35;3.05;;;9.80;99.90;;;;;;5056545;28;20693;-79
2021/05/23 06:00:01;;;;;;;1.92;1.83;;;9.80;99.90;;;;;;5056952;28;20193;-79
2021/05/23 06:02:27;;;;;;;1.52;1.20;;;9.80;99.90;;;;;;5056450;28;20192;-80
2021/05/23 06:04:53;;;;;;;1.17;1.10;;;9.80;99.90;;;;;;5056550;28;20205;-81
2021/05/23 06:07:20;;;;;;;0.93;0.82;;;9.80;99.90;;;;;;5055594;28;20217;-80
2021/05/23 06:09:46;;;;;;;6.30;2.70;;;9.70;99.90;;;;;;5056559;28;20776;-80
2021/05/23 06:12:12;;;;;;;2.53;2.42;;;9.70;99.90;;;;;;5056625;28;20201;-80
2021/05/23 06:14:39;;;;;;;0.60;0.60;;;9.60;99.90;;;;;;5056372;28;20626;-79
2021/05/23 06:17:06;;;;;;;0.50;0.40;;;9.60;99.90;;;;;;5055816;28;20208;-80
2021/05/23 06:19:32;;;;;;;0.50;0.38;;;9.60;99.90;;;;;;5055213;28;20192;-79
2021/05/23 06:21:58;;;;;;;3.63;3.28;;;9.60;99.90;;;;;;5056047;28;20192;-77
2021/05/23 06:24:25;;;;;;;2.55;2.40;;;9.60;99.90;;;;;;5056797;28;20594;-80
2021/05/23 06:26:52;;;;;;;2.17;2.08;;;9.60;99.90;;;;;;5055381;28;20203;-78
2021/05/23 06:29:18;;;;;;;3.53;2.95;;;9.50;99.90;;;;;;5056115;28;20224;-80
2021/05/23 06:31:44;;;;;;;0.50;0.50;;;9.50;99.90;;;;;;5056000;28;20225;-81
2021/05/23 06:34:11;;;;;;;0.50;0.40;;;9.40;99.90;;;;;;5056316;28;20192;-81
2021/05/23 06:36:38;;;;;;;2.25;1.30;;;9.40;99.90;;;;;;5055977;28;20195;-79
2021/05/23 06:39:05;;;;;;;1.33;1.27;;;9.50;99.90;;;;;;5055460;28;20714;-80
2021/05/23 06:41:31;;;;;;;0.73;0.68;;;9.50;99.90;;;;;;5055775;28;20218;-81
2021/05/23 06:43:58;;;;;;;2.05;1.00;;;9.50;99.90;;;;;;5056176;28;20209;-80
2021/05/23 06:46:24;;;;;;;0.50;0.50;;;9.50;99.90;;;;;;5056040;28;20196;-79
2021/05/23 06:48:50;;;;;;;1.17;1.17;;;9.60;99.90;;;;;;5055726;28;20226;-80
2021/05/23 06:51:18;;;;;;;1.20;1.10;;;9.50;99.90;;;;;;5056260;28;20187;-80
2021/05/23 06:53:44;;;;;;;1.58;1.48;;;9.60;99.90;;;;;;5056131;28;20199;-81
2021/05/23 06:56:11;;;;;;;4.40;1.13;;;9.60;99.90;;;;;;5057173;28;20198;-81
2021/05/23 06:58:37;;;;;;;1.15;1.08;;;9.60;99.90;;;;;;5056522;28;20213;-78
2021/05/23 07:01:03;;;;;;;3.63;1.25;;;9.60;99.90;;;;;;5055987;28;20230;-79
2021/05/23 07:03:29;;;;;;;5.57;2.60;;;9.70;99.90;;;;;;5056170;28;20194;-79
2021/05/23 07:05:56;;;;;;;2.80;2.70;;;9.70;99.90;;;;;;5054671;28;20237;-82
2021/05/23 07:08:23;;;;;;;2.05;1.95;;;9.70;99.90;;;;;;5054954;28;20220;-77
2021/05/23 07:10:49;;;;;;;0.50;0.40;;;9.70;99.90;;;;;;5055493;28;20201;-81
2021/05/23 07:13:15;;;;;;;2.97;1.45;;;9.80;99.90;;;;;;5054704;28;20275;-78
2021/05/23 07:15:42;;;;;;;0.50;0.50;;;10.00;99.90;;;;;;5054221;28;20200;-78
2021/05/23 07:18:08;;;;;;;1.98;1.77;;;10.10;99.90;;;;;;5052941;28;20590;-79
2021/05/23 07:20:34;;;;;;;0.88;0.88;;;10.10;99.90;;;;;;5053461;28;20207;-79
2021/05/23 07:23:00;;;;;;;1.73;1.52;;;10.10;99.90;;;;;;5053836;28;20250;-75
2021/05/23 07:25:27;;;;;;;4.15;1.20;;;10.10;99.90;;;;;;5053825;28;20196;-81
2021/05/23 07:27:54;;;;;;;1.95;1.85;;;10.20;99.90;;;;;;5053689;28;20248;-76
2021/05/23 07:30:20;;;;;;;0.50;0.40;;;10.20;99.90;;;;;;5054108;28;20576;-78
2021/05/23 07:32:47;;;;;;;1.42;1.30;;;10.40;99.90;;;;;;5053987;28;20196;-79
2021/05/23 07:35:13;;;;;;;1.20;1.02;;;10.50;99.90;;;;;;5053641;28;20224;-79
2021/05/23 07:37:40;;;;;;;1.05;1.05;;;10.80;99.90;;;;;;5053640;28;20227;-78
2021/05/23 07:40:07;;;;;;;1.27;1.13;;;10.80;99.90;;;;;;5053716;28;20197;-79
2021/05/23 07:42:34;;;;;;;1.08;0.98;;;10.90;99.90;;;;;;5054276;28;20195;-77
2021/05/23 07:45:00;;;;;;;1.92;1.73;;;11.00;99.90;;;;;;5057628;28;20568;-78
2021/05/23 07:47:26;;;;;;;0.70;0.70;;;11.20;99.90;;;;;;5053011;28;20229;-79
2021/05/23 07:49:52;;;;;;;0.50;0.40;;;11.30;99.90;;;;;;5053581;28;20225;-76
2021/05/23 07:52:19;;;;;;;2.35;1.35;;;11.40;99.90;;;;;;5052857;28;20205;-79
2021/05/23 07:54:45;;;;;;;0.80;0.80;;;11.40;99.90;;;;;;5052779;28;20552;-79
2021/05/23 07:57:11;;;;;;;0.60;0.50;;;11.40;99.90;;;;;;5052972;28;20215;-78
2021/05/23 07:59:38;;;;;;;1.00;0.90;;;11.40;99.90;;;;;;5054358;28;20190;-77
2021/05/23 08:02:04;;;;;;;0.57;0.47;;;11.40;99.90;;;;;;5053555;28;20622;-79
2021/05/23 08:04:31;;;;;;;0.50;0.40;;;11.50;99.90;;;;;;5052781;28;20228;-79
2021/05/23 08:06:57;;;;;;;1.15;1.05;;;11.60;99.90;;;;;;5051490;28;20206;-80
2021/05/23 08:09:23;;;;;;;0.80;0.80;;;11.80;99.90;;;;;;5053088;28;20218;-78
2021/05/23 08:11:49;;;;;;;0.70;0.52;;;11.90;99.90;;;;;;5053361;28;20197;-79
2021/05/23 08:14:16;;;;;;;0.50;0.40;;;12.10;99.90;;;;;;5053651;28;20202;-79
2021/05/23 08:16:44;;;;;;;0.50;0.40;;;12.20;99.90;;;;;;5053342;28;20199;-79
2021/05/23 08:19:11;;;;;;;0.57;0.52;;;12.30;99.90;;;;;;5052892;28;20274;-79
2021/05/23 08:21:37;;;;;;;0.80;0.80;;;12.50;99.90;;;;;;5053518;28;20205;-79
2021/05/23 08:24:04;;;;;;;0.93;0.80;;;12.90;99.90;;;;;;5054271;28;20201;-77
2021/05/23 08:26:31;;;;;;;0.50;0.40;;;13.10;99.90;;;;;;5053606;28;20252;-79
2021/05/23 08:28:57;;;;;;;1.35;0.82;;;13.30;99.90;;;;;;5053989;28;20285;-79
2021/05/23 08:31:24;;;;;;;3.92;0.63;;;13.30;99.90;;;;;;5054411;28;20194;-79
2021/05/23 08:33:52;;;;;;;0.50;0.40;;;13.00;99.90;;;;;;5053409;28;20655;-79
2021/05/23 08:36:18;;;;;;;0.50;0.40;;;13.30;99.90;;;;;;5053256;28;20190;-78
2021/05/23 08:38:44;;;;;;;0.57;0.50;;;14.10;99.90;;;;;;5053375;28;20237;-79
2021/05/23 08:41:10;;;;;;;0.50;0.50;;;15.00;99.90;;;;;;5053480;28;20194;-79
2021/05/23 08:43:37;;;;;;;2.88;0.63;;;15.50;99.90;;;;;;5053498;28;20443;-79
2021/05/23 08:46:03;;;;;;;0.90;0.90;;;15.20;99.90;;;;;;5053989;28;20198;-79
2021/05/23 08:48:29;;;;;;;0.90;0.50;;;14.60;99.90;;;;;;5052973;28;20511;-80
2021/05/23 08:50:56;;;;;;;1.13;1.02;;;14.00;99.90;;;;;;5052986;28;20194;-79
2021/05/23 08:53:23;;;;;;;0.50;0.40;;;13.50;99.90;;;;;;5053170;28;20202;-79
2021/05/23 08:55:50;;;;;;;0.50;0.40;;;13.30;99.90;;;;;;5053265;28;20663;-80
2021/05/23 08:58:16;;;;;;;0.50;0.40;;;13.10;99.90;;;;;;5052132;28;20711;-79
2021/05/23 09:00:42;;;;;;;0.50;0.40;;;13.00;99.90;;;;;;5053209;28;20195;-81
2021/05/23 09:03:12;;;;;;;0.50;0.40;;;12.80;99.90;;;;;;5052582;28;20205;-79
2021/05/23 09:05:39;;;;;;;0.50;0.38;;;12.90;99.90;;;;;;5052341;28;20300;-79
2021/05/23 09:08:12;;;;;;;1.23;0.70;;;13.00;99.90;;;;;;5052546;28;20218;-78
2021/05/23 09:10:39;;;;;;;0.50;0.40;;;12.90;99.90;;;;;;5052484;28;20302;-80
2021/05/23 09:13:06;;;;;;;0.60;0.52;;;12.90;99.90;;;;;;5052239;28;20205;-79
2021/05/23 09:15:32;;;;;;;0.50;0.50;;;13.00;99.90;;;;;;5051667;28;20195;-80
2021/05/23 09:18:05;;;;;;;0.50;0.40;;;12.90;99.90;;;;;;5051175;28;20313;-78
2021/05/23 09:20:31;;;;;;;0.50;0.40;;;12.90;99.90;;;;;;5048300;28;20313;-78
2021/05/23 09:23:01;;;;;;;0.60;0.40;;;13.00;99.90;;;;;;5056167;28;20201;-79
2021/05/23 09:25:30;;;;;;;0.50;0.40;;;13.00;99.90;;;;;;5056834;28;20198;-79
2021/05/23 09:27:57;;;;;;;0.88;0.60;;;12.90;99.90;;;;;;5056485;28;20615;-79
2021/05/23 09:30:26;;;;;;;0.50;0.40;;;13.00;99.90;;;;;;5056941;28;20217;-78
2021/05/23 09:32:54;;;;;;;0.50;0.40;;;13.20;99.90;;;;;;5056675;28;20756;-78
2021/05/23 09:35:21;;;;;;;0.90;0.90;;;13.60;99.90;;;;;;5057046;28;20221;-78
2021/05/23 09:37:58;;;;;;;1.10;0.70;;;13.80;99.90;;;;;;5056161;28;20753;-78
2021/05/23 09:40:26;;;;;;;6.18;0.95;;;13.90;99.90;;;;;;5057753;28;20198;-80
2021/05/23 09:42:55;;;;;;;0.50;0.50;;;14.00;99.90;;;;;;5057231;28;20248;-79
2021/05/23 09:45:22;;;;;;;0.88;0.88;;;14.00;99.90;;;;;;5057166;28;20218;-81
2021/05/23 09:47:53;;;;;;;4.20;1.17;;;13.90;99.90;;;;;;5056732;28;20560;-80
2021/05/23 09:50:32;;;;;;;0.68;0.68;;;14.00;99.90;;;;;;5056695;28;20207;-81
2021/05/23 09:52:59;;;;;;;1.35;1.25;;;14.20;99.90;;;;;;5055940;28;20183;-79
2021/05/23 09:55:26;;;;;;;0.82;0.75;;;14.50;99.90;;;;;;5056686;28;20199;-79
2021/05/23 09:57:53;;;;;;;0.50;0.30;;;14.70;99.90;;;;;;5056045;28;20255;-80
2021/05/23 10:00:19;;;;;;;0.50;0.40;;;14.50;99.90;;;;;;5056834;28;20440;-79
2021/05/23 10:02:53;;;;;;;2.60;1.87;;;14.40;99.90;;;;;;5057184;28;20524;-79
2021/05/23 10:05:20;;;;;;;1.77;1.50;;;14.30;99.90;;;;;;5057078;28;20448;-78
2021/05/23 10:07:46;;;;;;;0.50;0.40;;;14.20;99.90;;;;;;5056696;28;20218;-80
2021/05/23 10:10:14;;;;;;;0.50;0.40;;;13.80;99.90;;;;;;5056593;28;20218;-80
2021/05/23 10:12:41;;;;;;;1.27;0.50;;;13.80;99.90;;;;;;5056747;28;20195;-79
2021/05/23 10:15:10;;;;;;;1.03;0.70;;;13.80;99.90;;;;;;5056713;28;20191;-81
2021/05/23 10:17:37;;;;;;;0.50;0.40;;;14.20;99.90;;;;;;5055829;28;20826;-78
2021/05/23 10:20:06;;;;;;;0.50;0.40;;;14.90;99.90;;;;;;5052822;28;20438;-80
2021/05/23 10:22:35;;;;;;;2.40;0.70;;;15.50;99.90;;;;;;5056340;28;20444;-79
2021/05/23 10:25:04;;;;;;;1.37;0.50;;;15.50;99.90;;;;;;5056082;28;20445;-79
2021/05/23 10:27:34;;;;;;;0.60;0.50;;;15.40;99.90;;;;;;5055600;28;20592;-80
2021/05/23 10:30:02;;;;;;;3.23;0.50;;;15.80;99.90;;;;;;5054872;28;21024;-79
2021/05/23 10:32:30;;;;;;;0.50;0.40;;;15.00;99.90;;;;;;5056018;28;20941;-81
2021/05/23 10:35:08;;;;;;;0.60;0.50;;;14.80;99.90;;;;;;5055722;28;20444;-81
2021/05/23 10:37:34;;;;;;;0.50;0.40;;;14.40;99.90;;;;;;5055292;28;20467;-80
2021/05/23 10:40:00;;;;;;;0.50;0.43;;;14.00;99.90;;;;;;5055545;28;21127;-77
2021/05/23 10:42:30;;;;;;;0.57;0.43;;;14.10;99.90;;;;;;5055944;28;20198;-80
2021/05/23 10:44:58;;;;;;;0.50;0.40;;;14.20;99.90;;;;;;5055962;28;20438;-79
2021/05/23 10:47:27;;;;;;;0.90;0.80;;;14.10;99.90;;;;;;5055819;28;20452;-79
2021/05/23 10:49:56;;;;;;;0.50;0.40;;;14.10;99.90;;;;;;5055567;28;20845;-80
2021/05/23 10:52:24;;;;;;;0.57;0.47;;;14.00;99.90;;;;;;5056199;28;20195;-79
2021/05/23 10:54:58;;;;;;;2.30;1.23;;;14.10;99.90;;;;;;5056293;28;20498;-80
2021/05/23 10:57:25;;;;;;;0.70;0.67;;;14.30;99.90;;;;;;5055098;28;20984;-79
2021/05/23 10:59:59;;;;;;;0.50;0.40;;;14.30;99.90;;;;;;5055951;28;20487;-80
2021/05/23 11:02:35;;;;;;;0.50;0.40;;;14.20;99.90;;;;;;5056329;28;20453;-80
2021/05/23 11:05:10;;;;;;;0.57;0.50;;;14.20;99.90;;;;;;5055895;28;20241;-80
2021/05/23 11:07:37;;;;;;;0.70;0.50;;;14.30;99.90;;;;;;5055037;28;20456;-80
2021/05/23 11:10:17;;;;;;;0.60;0.60;;;14.30;99.90;;;;;;5055758;28;20465;-80
2021/05/23 11:12:55;;;;;;;1.07;0.50;;;14.50;99.90;;;;;;5055902;28;20576;-80
2021/05/23 11:15:21;;;;;;;0.50;0.40;;;14.80;99.90;;;;;;5055454;28;20437;-80
2021/05/23 11:17:52;;;;;;;0.90;0.57;;;15.00;99.90;;;;;;5054342;28;20465;-80
2021/05/23 11:20:22;;;;;;;0.60;0.50;;;15.10;99.90;;;;;;5054866;28;20485;-78
2021/05/23 11:23:00;;;;;;;0.80;0.70;;;15.10;99.90;;;;;;5054481;28;20425;-79
2021/05/23 11:25:27;;;;;;;0.50;0.40;;;14.80;99.90;;;;;;5054106;28;20467;-79
2021/05/23 11:28:02;;;;;;;0.50;0.50;;;14.70;99.90;;;;;;5054302;28;20457;-77
2021/05/23 11:30:33;;;;;;;0.50;0.40;;;14.70;99.90;;;;;;5054036;28;20706;-77
2021/05/23 11:33:06;;;;;;;1.55;0.73;;;14.70;99.90;;;;;;5053930;28;20966;-78
2021/05/23 11:35:35;;;;;;;0.70;0.50;;;14.40;99.90;;;;;;5055135;28;20197;-78
2021/05/23 11:38:02;;;;;;;0.52;0.38;;;14.50;99.90;;;;;;5052701;28;20457;-79
2021/05/23 11:40:34;;;;;;;0.50;0.40;;;14.60;99.90;;;;;;5054004;28;20226;-79
2021/05/23 11:43:11;;;;;;;0.50;0.40;;;14.70;99.90;;;;;;5053620;28;20445;-77
2021/05/23 11:45:39;;;;;;;0.50;0.40;;;15.20;99.90;;;;;;5053963;28;20480;-78
2021/05/23 11:48:12;;;;;;;0.50;0.40;;;15.70;99.90;;;;;;5053533;28;20478;-78
2021/05/23 11:50:40;;;;;;;0.50;0.40;;;15.90;97.60;;;;;;5054495;28;20457;-80
2021/05/23 11:53:07;;;;;;;0.60;0.60;;;15.70;97.40;;;;;;5054814;28;20438;-77
2021/05/23 11:55:34;;;;;;;0.50;0.40;;;15.50;99.20;;;;;;5055031;28;20444;-80
2021/05/23 11:58:09;;;;;;;0.60;0.50;;;15.40;99.90;;;;;;5053402;28;20453;-77
2021/05/23 12:00:36;;;;;;;1.30;1.20;;;15.30;97.20;;;;;;5054261;28;20468;-79
2021/05/23 12:03:05;;;;;;;0.50;0.40;;;15.30;95.60;;;;;;5054493;28;20437;-74
2021/05/23 12:05:39;;;;;;;0.50;0.40;;;15.70;94.70;;;;;;5054140;28;20465;-78
2021/05/23 12:08:17;;;;;;;1.13;1.03;;;16.10;96.40;;;;;;5053184;28;20453;-78
2021/05/23 12:10:44;;;;;;;0.50;0.40;;;16.40;94.10;;;;;;5053857;28;20460;-77
2021/05/23 12:13:11;;;;;;;0.50;0.40;;;16.40;92.40;;;;;;5053361;28;20880;-79
2021/05/23 12:15:37;;;;;;;0.60;0.53;;;16.40;95.70;;;;;;5053773;28;20453;-78
2021/05/23 12:18:04;;;;;;;0.50;0.30;;;16.50;93.50;;;;;;5052410;28;20472;-80
2021/05/23 12:20:30;;;;;;;0.50;0.40;;;16.90;93.00;;;;;;5053388;28;20446;-78
2021/05/23 12:22:57;;;;;;;0.50;0.40;;;17.70;90.70;;;;;;5053430;28;20456;-79
2021/05/23 12:25:25;;;;;;;0.50;0.40;;;17.80;83.40;;;;;;5053582;28;20437;-78
2021/05/23 12:27:52;;;;;;;0.77;0.77;;;17.70;79.80;;;;;;5052699;28;20474;-78
2021/05/23 12:30:21;;;;;;;0.60;0.50;;;17.10;75.90;;;;;;5052708;28;20508;-79
2021/05/23 12:32:52;;;;;;;0.50;0.33;;;16.90;79.20;;;;;;5053171;28;20456;-80
2021/05/23 12:35:20;;;;;;;0.60;0.60;;;17.20;81.30;;;;;;5052812;28;20531;-77
2021/05/23 12:37:55;;;;;;;0.50;0.40;;;17.40;78.90;;;;;;5054199;28;20457;-80
2021/05/23 12:40:24;;;;;;;0.50;0.40;;;17.10;78.90;;;;;;5054124;28;20503;-79
2021/05/23 12:42:51;;;;;;;0.50;0.30;;;16.60;80.50;;;;;;5053911;28;20441;-80
2021/05/23 12:45:18;;;;;;;0.80;0.60;;;16.10;82.40;;;;;;5053955;28;20444;-79
2021/05/23 12:47:53;;;;;;;0.50;0.40;;;16.10;80.30;;;;;;5053646;28;20463;-80
2021/05/23 12:50:37;;;;;;;0.90;0.63;;;17.00;80.50;;;;;;5053093;28;20471;-79
2021/05/23 12:53:05;;;;;;;4.10;0.87;;;17.90;78.00;;;;;;5053771;28;20915;-77
2021/05/23 12:55:38;;;;;;;0.50;0.40;;;18.50;74.70;;;;;;5054484;28;20451;-78